Observation data for Plains on 03/25/2019      Previous  Date  Next       Current Mesonet Observations  Soil Data  Daily Summary Page  Observations in Plain Language
KPPS 250500Z 31009KT 13/M05 A3013 RMK A01 T01301051  RH  028%=      5-min Rain = 0
KPPS 250505Z 32009KT 12/M05 A3013 RMK A01 T01241049  RH  030%=      5-min Rain = 0
KPPS 250510Z 32008KT 12/M05 A3013 RMK A01 T01191047  RH  031%=      5-min Rain = 0
KPPS 250515Z 33007KT 11/M05 A3013 RMK A01 T01141046  RH  032%=      5-min Rain = 0
KPPS 250520Z 33007KT 11/M04 A3014 RMK A01 T01071043  RH  035%=      5-min Rain = 0
KPPS 250525Z 33008KT 10/M04 A3014 RMK A01 T01011040  RH  037%=      5-min Rain = 0
KPPS 250530Z 32006KT 10/M04 A3014 RMK A01 T01001038  RH  038%=      5-min Rain = 0
KPPS 250535Z 32005KT 10/M04 A3014 RMK A01 T00951037  RH  039%=      5-min Rain = 0
KPPS 250540Z 33006KT 10/M04 A3014 RMK A01 T00951038  RH  039%=      5-min Rain = 0
KPPS 250545Z 32006KT 09/M04 A3014 RMK A01 T00921036  RH  041%=      5-min Rain = 0
KPPS 250550Z 31005KT 09/M04 A3014 RMK A01 T00891035  RH  042%=      5-min Rain = 0
KPPS 250555Z 30006KT 09/M04 A3014 RMK A01 T00901038  RH  041%=      5-min Rain = 0
KPPS 250600Z 30005KT 09/M04 A3014 RMK A01 T00901037  RH  041%=      5-min Rain = 0
KPPS 250605Z 30006KT 09/M04 A3014 RMK A01 T00911039  RH  040%=      5-min Rain = 0
KPPS 250610Z 30006KT 09/M04 A3014 RMK A01 T00901037  RH  041%=      5-min Rain = 0
KPPS 250615Z 30006KT 09/M04 A3014 RMK A01 T00891039  RH  040%=      5-min Rain = 0
KPPS 250620Z 28006KT 09/M04 A3014 RMK A01 T00871035  RH  042%=      5-min Rain = 0
KPPS 250625Z 28007KT 07/M03 A3014 RMK A01 T00741029  RH  048%=      5-min Rain = 0
KPPS 250630Z 27006KT 06/M03 A3014 RMK A01 T00641025  RH  053%=      5-min Rain = 0
KPPS 250635Z 26007KT 06/M02 A3014 RMK A01 T00561021  RH  058%=      5-min Rain = 0
KPPS 250640Z 27006KT 05/M02 A3014 RMK A01 T00521019  RH  061%=      5-min Rain = 0
KPPS 250645Z 28007KT 05/M02 A3014 RMK A01 T00531020  RH  060%=      5-min Rain = 0
KPPS 250650Z 28008KT 06/M02 A3014 RMK A01 T00551023  RH  058%=      5-min Rain = 0
KPPS 250655Z 29007KT 06/M03 A3014 RMK A01 T00551025  RH  057%=      5-min Rain = 0
KPPS 250700Z 29007KT 06/M03 A3014 RMK A01 T00611029  RH  053%=      5-min Rain = 0
KPPS 250705Z 29008KT 07/M03 A3014 RMK A01 T00651030  RH  051%=      5-min Rain = 0
KPPS 250710Z 30007KT 07/M03 A3014 RMK A01 T00691033  RH  049%=      5-min Rain = 0
KPPS 250715Z 30007KT 07/M03 A3014 RMK A01 T00711034  RH  047%=      5-min Rain = 0
KPPS 250720Z 31007KT 07/M03 A3014 RMK A01 T00691034  RH  048%=      5-min Rain = 0
KPPS 250725Z 31007KT 07/M03 A3014 RMK A01 T00671033  RH  049%=      5-min Rain = 0
KPPS 250730Z 31008KT 07/M03 A3014 RMK A01 T00671034  RH  049%=      5-min Rain = 0
KPPS 250735Z 30005KT 07/M03 A3015 RMK A01 T00691034  RH  048%=      5-min Rain = 0
KPPS 250740Z 30006KT 07/M03 A3015 RMK A01 T00651034  RH  049%=      5-min Rain = 0
KPPS 250745Z 31006KT 07/M03 A3015 RMK A01 T00671034  RH  049%=      5-min Rain = 0
KPPS 250750Z 32006KT 07/M03 A3015 RMK A01 T00671034  RH  049%=      5-min Rain = 0
KPPS 250755Z 32007KT 07/M04 A3015 RMK A01 T00661036  RH  048%=      5-min Rain = 0
KPPS 250800Z 32007KT 07/M04 A3015 RMK A01 T00671036  RH  048%=      5-min Rain = 0
KPPS 250805Z 33008KT 07/M04 A3015 RMK A01 T00701037  RH  047%=      5-min Rain = 0
KPPS 250810Z 36007G12KT 07/M03 A3016 RMK A01 T00671034  RH  049%=      5-min Rain = 0
KPPS 250815Z 06009G14KT 08/M04 A3017 RMK A01 T00771037  RH  045%=      5-min Rain = 0
KPPS 250820Z 07006KT 09/M04 A3017 RMK A01 T00861041  RH  041%=      5-min Rain = 0
KPPS 250825Z 05005KT 08/M04 A3017 RMK A01 T00831041  RH  041%=      5-min Rain = 0
KPPS 250830Z 04007KT 08/M04 A3017 RMK A01 T00791040  RH  043%=      5-min Rain = 0
KPPS 250835Z 04008KT 08/M04 A3017 RMK A01 T00811044  RH  041%=      5-min Rain = 0
KPPS 250840Z 03008KT 09/M05 A3017 RMK A01 T00851047  RH  039%=      5-min Rain = 0
KPPS 250845Z 02007KT 09/M05 A3017 RMK A01 T00921050  RH  037%=      5-min Rain = 0
KPPS 250850Z 01006KT 09/M05 A3016 RMK A01 T00871048  RH  038%=      5-min Rain = 0
KPPS 250855Z 34004KT 08/M05 A3017 RMK A01 T00781045  RH  042%=      5-min Rain = 0
KPPS 250900Z 32003KT 07/M04 A3017 RMK A01 T00731044  RH  043%=      5-min Rain = 0
KPPS 250905Z 34002KT 07/M05 A3017 RMK A01 T00681045  RH  044%=      5-min Rain = 0
KPPS 250910Z 01003KT 07/M05 A3017 RMK A01 T00691045  RH  044%=      5-min Rain = 0
KPPS 250915Z 04002KT 07/M05 A3017 RMK A01 T00661045  RH  045%=      5-min Rain = 0
KPPS 250920Z 07003KT 06/M04 A3017 RMK A01 T00611041  RH  049%=      5-min Rain = 0
KPPS 250925Z 06003KT 06/M04 A3017 RMK A01 T00571040  RH  050%=      5-min Rain = 0
KPPS 250930Z 05005KT 07/M04 A3017 RMK A01 T00661043  RH  046%=      5-min Rain = 0
KPPS 250935Z 04005KT 07/M05 A3017 RMK A01 T00651045  RH  046%=      5-min Rain = 0
KPPS 250940Z 03006KT 07/M05 A3017 RMK A01 T00731048  RH  042%=      5-min Rain = 0
KPPS 250945Z 02006KT 07/M05 A3017 RMK A01 T00701045  RH  044%=      5-min Rain = 0
KPPS 250950Z 02006KT 06/M04 A3017 RMK A01 T00621044  RH  047%=      5-min Rain = 0
KPPS 250955Z 01006KT 06/M04 A3017 RMK A01 T00601044  RH  047%=      5-min Rain = 0
KPPS 251000Z 02006KT 06/M04 A3017 RMK A01 T00621044  RH  047%=      5-min Rain = 0
KPPS 251005Z 01006KT 06/M04 A3017 RMK A01 T00591043  RH  048%=      5-min Rain = 0
KPPS 251010Z 00005KT 05/M04 A3017 RMK A01 T00501042  RH  052%=      5-min Rain = 0
KPPS 251015Z 35005KT 04/M04 A3017 RMK A01 T00441040  RH  054%=      5-min Rain = 0
KPPS 251020Z 35005KT 04/M04 A3017 RMK A01 T00441041  RH  054%=      5-min Rain = 0
KPPS 251025Z 36006KT 05/M04 A3017 RMK A01 T00471044  RH  052%=      5-min Rain = 0
KPPS 251030Z 35005KT 05/M05 A3017 RMK A01 T00531046  RH  049%=      5-min Rain = 0
KPPS 251035Z 00005KT 06/M05 A3017 RMK A01 T00561048  RH  047%=      5-min Rain = 0
KPPS 251040Z 00006KT 06/M05 A3017 RMK A01 T00591048  RH  046%=      5-min Rain = 0
KPPS 251045Z 01006KT 06/M05 A3018 RMK A01 T00561047  RH  048%=      5-min Rain = 0
KPPS 251050Z 02005KT 05/M05 A3018 RMK A01 T00531045  RH  049%=      5-min Rain = 0
KPPS 251055Z 02005KT 06/M05 A3018 RMK A01 T00551046  RH  048%=      5-min Rain = 0
KPPS 251100Z 02005KT 06/M05 A3018 RMK A01 T00601047  RH  046%=      5-min Rain = 0
KPPS 251105Z 04004KT 06/M05 A3019 RMK A01 T00561047  RH  048%=      5-min Rain = 0
KPPS 251110Z 04001KT 05/M04 A302 RMK A01 T00501044  RH  051%=      5-min Rain = 0
KPPS 251115Z 34003KT 04/M04 A302 RMK A01 T00361038  RH  059%=      5-min Rain = 0
KPPS 251120Z 01007KT 04/M04 A302 RMK A01 T00421039  RH  056%=      5-min Rain = 0
KPPS 251125Z 01009KT 05/M04 A302 RMK A01 T00531041  RH  051%=      5-min Rain = 0
KPPS 251130Z 01009KT 06/M04 A302 RMK A01 T00581040  RH  049%=      5-min Rain = 0
KPPS 251135Z 00007KT 05/M04 A302 RMK A01 T00541037  RH  052%=      5-min Rain = 0
KPPS 251140Z 01006KT 05/M04 A3021 RMK A01 T00481035  RH  055%=      5-min Rain = 0
KPPS 251145Z 00006KT 04/M04 A3021 RMK A01 T00431035  RH  057%=      5-min Rain = 0
KPPS 251150Z 36007KT 04/M03 A3021 RMK A01 T00381034  RH  060%=      5-min Rain = 0
KPPS 251155Z 36007KT 03/M03 A3021 RMK A01 T00331034  RH  062%=      5-min Rain = 0
KPPS 251200Z 00009KT 03/M03 A3021 RMK A01 T00321033  RH  063%=      5-min Rain = 0
KPPS 251205Z 00009KT 03/M03 A3022 RMK A01 T00331033  RH  062%=      5-min Rain = 0
KPPS 251210Z 00008KT 03/M03 A3022 RMK A01 T00301032  RH  064%=      5-min Rain = 0
KPPS 251215Z 01008KT 03/M03 A3022 RMK A01 T00291032  RH  064%=      5-min Rain = 0
KPPS 251220Z 01007KT 03/M03 A3022 RMK A01 T00291032  RH  064%=      5-min Rain = 0
KPPS 251225Z 01006KT 03/M03 A3022 RMK A01 T00271032  RH  066%=      5-min Rain = 0
KPPS 251230Z 01006KT 03/M03 A3022 RMK A01 T00251032  RH  066%=      5-min Rain = 0
KPPS 251235Z 01006KT 02/M03 A3023 RMK A01 T00221033  RH  067%=      5-min Rain = 0
KPPS 251240Z 00007KT 02/M03 A3023 RMK A01 T00191033  RH  069%=      5-min Rain = 0
KPPS 251245Z 35007KT 02/M03 A3023 RMK A01 T00181031  RH  070%=      5-min Rain = 0
KPPS 251250Z 36007KT 02/M03 A3023 RMK A01 T00181032  RH  070%=      5-min Rain = 0
KPPS 251255Z 36006KT 02/M03 A3023 RMK A01 T00191030  RH  070%=      5-min Rain = 0
KPPS 251300Z 00007KT 02/M03 A3023 RMK A01 T00211029  RH  069%=      5-min Rain = 0
KPPS 251305Z 01006KT 02/M03 A3023 RMK A01 T00231029  RH  069%=      5-min Rain = 0
KPPS 251310Z 01006KT 02/M03 A3023 RMK A01 T00221029  RH  070%=      5-min Rain = 0
KPPS 251315Z 00006KT 02/M03 A3023 RMK A01 T00221027  RH  071%=      5-min Rain = 0
KPPS 251320Z 02005KT 02/M03 A3024 RMK A01 T00241025  RH  071%=      5-min Rain = 0
KPPS 251325Z 00004KT 03/M02 A3024 RMK A01 T00271021  RH  071%=      5-min Rain = 0
KPPS 251330Z 36004KT 03/M02 A3024 RMK A01 T00321019  RH  070%=      5-min Rain = 0
KPPS 251335Z 35004KT 04/M01 A3024 RMK A01 T00371014  RH  070%=      5-min Rain = 0
KPPS 251340Z 35003KT 04/M01 A3025 RMK A01 T00441008  RH  070%=      5-min Rain = 0
KPPS 251345Z 35003KT 05/M00 A3025 RMK A01 T00511002  RH  069%=      5-min Rain = 0
KPPS 251350Z 35002KT 06/00 A3025 RMK A01 T00570003  RH  069%=      5-min Rain = 0
KPPS 251355Z 36003KT 06/01 A3025 RMK A01 T00640010  RH  069%=      5-min Rain = 0
KPPS 251400Z 03003KT 07/02 A3026 RMK A01 T00720016  RH  068%=      5-min Rain = 0
KPPS 251405Z 02003KT 08/02 A3026 RMK A01 T00770020  RH  068%=      5-min Rain = 0
KPPS 251410Z 03003KT 08/02 A3026 RMK A01 T00800023  RH  068%=      5-min Rain = 0
KPPS 251415Z 04003KT 08/02 A3026 RMK A01 T00830023  RH  067%=      5-min Rain = 0
KPPS 251420Z 04004KT 09/03 A3026 RMK A01 T00860029  RH  068%=      5-min Rain = 0
KPPS 251425Z 04004KT 09/03 A3027 RMK A01 T00900034  RH  069%=      5-min Rain = 0
KPPS 251430Z 04004KT 09/04 A3027 RMK A01 T00940035  RH  068%=      5-min Rain = 0
KPPS 251435Z 04005KT 10/04 A3027 RMK A01 T00970038  RH  068%=      5-min Rain = 0
KPPS 251440Z 05005KT 10/04 A3027 RMK A01 T01000038  RH  067%=      5-min Rain = 0
KPPS 251445Z 05005KT 10/04 A3027 RMK A01 T01030041  RH  066%=      5-min Rain = 0
KPPS 251450Z 07006KT 11/05 A3027 RMK A01 T01100045  RH  065%=      5-min Rain = 0
KPPS 251455Z 09008KT 12/05 A3027 RMK A01 T01160046  RH  064%=      5-min Rain = 0
KPPS 251500Z 09008KT 12/05 A3028 RMK A01 T01190046  RH  062%=      5-min Rain = 0
KPPS 251505Z 09007KT 12/04 A3028 RMK A01 T01230044  RH  060%=      5-min Rain = 0
KPPS 251510Z 08006KT 13/04 A3028 RMK A01 T01250044  RH  059%=      5-min Rain = 0
KPPS 251515Z 09006KT 13/04 A3028 RMK A01 T01300043  RH  057%=      5-min Rain = 0
KPPS 251520Z 09007KT 13/04 A3028 RMK A01 T01330043  RH  055%=      5-min Rain = 0
KPPS 251525Z 11008KT 13/04 A3028 RMK A01 T01340042  RH  055%=      5-min Rain = 0
KPPS 251530Z 10008KT 14/04 A3028 RMK A01 T01350042  RH  054%=      5-min Rain = 0
KPPS 251535Z 10008KT 14/04 A3028 RMK A01 T01370044  RH  055%=      5-min Rain = 0
KPPS 251540Z 11007KT 14/05 A3029 RMK A01 T01410046  RH  054%=      5-min Rain = 0
KPPS 251545Z 10008KT 14/05 A3029 RMK A01 T01430047  RH  054%=      5-min Rain = 0
KPPS 251550Z 13008KT 14/05 A3029 RMK A01 T01430047  RH  054%=      5-min Rain = 0
KPPS 251555Z 14009KT 15/05 A3029 RMK A01 T01450049  RH  054%=      5-min Rain = 0
KPPS 251600Z 12009KT 15/05 A3029 RMK A01 T01470050  RH  053%=      5-min Rain = 0
KPPS 251605Z 13008KT 15/05 A303 RMK A01 T01490053  RH  054%=      5-min Rain = 0
KPPS 251610Z 12009KT 15/05 A303 RMK A01 T01480052  RH  053%=      5-min Rain = 0
KPPS 251615Z 12008KT 15/05 A303 RMK A01 T01510053  RH  053%=      5-min Rain = 0
KPPS 251620Z 10008KT 15/05 A303 RMK A01 T01540053  RH  052%=      5-min Rain = 0
KPPS 251625Z 11009KT 16/05 A303 RMK A01 T01550050  RH  051%=      5-min Rain = 0
KPPS 251630Z 10008KT 16/05 A303 RMK A01 T01560050  RH  050%=      5-min Rain = 0
KPPS 251635Z 11009KT 16/05 A303 RMK A01 T01550050  RH  050%=      5-min Rain = 0
KPPS 251640Z 12008G13KT 16/05 A303 RMK A01 T01570051  RH  050%=      5-min Rain = 0
KPPS 251645Z 09008KT 16/05 A303 RMK A01 T01580052  RH  050%=      5-min Rain = 0
KPPS 251650Z 11008KT 16/05 A303 RMK A01 T01600050  RH  049%=      5-min Rain = 0
KPPS 251655Z 11008KT 16/05 A303 RMK A01 T01600050  RH  049%=      5-min Rain = 0
KPPS 251700Z 10010KT 16/05 A303 RMK A01 T01600050  RH  049%=      5-min Rain = 0
KPPS 251705Z 12009KT 16/05 A303 RMK A01 T01610049  RH  049%=      5-min Rain = 0
KPPS 251710Z 12008G13KT 16/05 A303 RMK A01 T01630051  RH  049%=      5-min Rain = 0
KPPS 251715Z 11009KT 16/05 A303 RMK A01 T01630050  RH  048%=      5-min Rain = 0
KPPS 251720Z 10008KT 16/05 A303 RMK A01 T01630050  RH  048%=      5-min Rain = 0
KPPS 251725Z 12008KT 17/05 A303 RMK A01 T01660052  RH  048%=      5-min Rain = 0
KPPS 251730Z 12007KT 17/05 A303 RMK A01 T01710053  RH  047%=      5-min Rain = 0
KPPS 251735Z 11009G15KT 17/05 A303 RMK A01 T01710051  RH  046%=      5-min Rain = 0
KPPS 251740Z 08009KT 17/05 A303 RMK A01 T01700049  RH  046%=      5-min Rain = 0
KPPS 251745Z 11007KT 17/05 A3029 RMK A01 T01700049  RH  046%=      5-min Rain = 0
KPPS 251750Z 11009KT 17/05 A3029 RMK A01 T01740050  RH  045%=      5-min Rain = 0
KPPS 251755Z 13006KT 17/05 A3029 RMK A01 T01700046  RH  044%=      5-min Rain = 0
KPPS 251800Z 12008KT 17/05 A3029 RMK A01 T01740049  RH  045%=      5-min Rain = 0
KPPS 251805Z 11004KT 17/04 A3029 RMK A01 T01730044  RH  043%=      5-min Rain = 0
KPPS 251810Z 09007G13KT 18/05 A3029 RMK A01 T01770048  RH  043%=      5-min Rain = 0
KPPS 251815Z 09007KT 18/05 A3029 RMK A01 T01750046  RH  043%=      5-min Rain = 0
KPPS 251820Z 11004G12KT 17/04 A3029 RMK A01 T01730044  RH  043%=      5-min Rain = 0
KPPS 251825Z 14007G12KT 18/04 A3029 RMK A01 T01780044  RH  042%=      5-min Rain = 0
KPPS 251830Z 13007KT 18/04 A3029 RMK A01 T01800041  RH  041%=      5-min Rain = 0
KPPS 251835Z 10005KT 18/04 A3029 RMK A01 T01780040  RH  041%=      5-min Rain = 0
KPPS 251840Z 09007G12KT 18/04 A3029 RMK A01 T01790041  RH  041%=      5-min Rain = 0
KPPS 251845Z 06006G11KT 18/04 A3028 RMK A01 T01820040  RH  040%=      5-min Rain = 0
KPPS 251850Z 10005G10KT 18/04 A3028 RMK A01 T01830038  RH  039%=      5-min Rain = 0
KPPS 251855Z 12007G12KT 19/04 A3028 RMK A01 T01860041  RH  039%=      5-min Rain = 0
KPPS 251900Z 11006KT 19/05 A3028 RMK A01 T01870045  RH  040%=      5-min Rain = 0
KPPS 251905Z 14006G12KT 19/05 A3028 RMK A01 T01850045  RH  040%=      5-min Rain = 0
KPPS 251910Z 13006G12KT 19/04 A3028 RMK A01 T01890040  RH  038%=      5-min Rain = 0
KPPS 251915Z 10006KT 19/04 A3028 RMK A01 T01910043  RH  038%=      5-min Rain = 0
KPPS 251920Z 11007KT 19/04 A3027 RMK A01 T01900039  RH  038%=      5-min Rain = 0
KPPS 251925Z 12009KT 19/04 A3027 RMK A01 T01940037  RH  036%=      5-min Rain = 0
KPPS 251930Z 11006KT 20/03 A3027 RMK A01 T01970032  RH  034%=      5-min Rain = 0
KPPS 251935Z 14005G10KT 20/03 A3027 RMK A01 T01970032  RH  034%=      5-min Rain = 0
KPPS 251940Z 16007KT 20/04 A3027 RMK A01 T01960035  RH  035%=      5-min Rain = 0
KPPS 251945Z 19005G10KT 19/04 A3026 RMK A01 T01930036  RH  036%=      5-min Rain = 0
KPPS 251950Z 19004G9KT 19/04 A3026 RMK A01 T01940037  RH  036%=      5-min Rain = 0
KPPS 251955Z 13007G14KT 20/04 A3026 RMK A01 T01970035  RH  035%=      5-min Rain = 0
KPPS 252000Z 12007G12KT 20/03 A3026 RMK A01 T01960033  RH  034%=      5-min Rain = 0
KPPS 252005Z 16003KT 20/03 A3026 RMK A01 T01960029  RH  033%=      5-min Rain = 0
KPPS 252010Z 12008KT 20/03 A3026 RMK A01 T01980029  RH  033%=      5-min Rain = 0
KPPS 252015Z 12005KT 20/02 A3025 RMK A01 T01970023  RH  032%=      5-min Rain = 0
KPPS 252020Z 11004G9KT 20/02 A3025 RMK A01 T01990024  RH  032%=      5-min Rain = 0
KPPS 252025Z 25002KT 20/02 A3025 RMK A01 T01980022  RH  031%=      5-min Rain = 0
KPPS 252030Z 16007G12KT 20/03 A3025 RMK A01 T02030026  RH  031%=      5-min Rain = 0
KPPS 252035Z 13008KT 20/02 A3025 RMK A01 T02040022  RH  030%=      5-min Rain = 0
KPPS 252040Z 14005KT 20/02 A3025 RMK A01 T02020021  RH  030%=      5-min Rain = 0
KPPS 252045Z 17002G9KT 20/02 A3024 RMK A01 T02010019  RH  030%=      5-min Rain = 0
KPPS 252050Z 11003KT 20/02 A3024 RMK A01 T02020015  RH  029%=      5-min Rain = 0
KPPS 252055Z 20003KT 21/02 A3024 RMK A01 T02060016  RH  029%=      5-min Rain = 0
KPPS 252100Z 22004KT 21/02 A3024 RMK A01 T02050015  RH  029%=      5-min Rain = 0
KPPS 252105Z 14005G10KT 21/02 A3023 RMK A01 T02080017  RH  029%=      5-min Rain = 0
KPPS 252110Z 10007KT 21/02 A3023 RMK A01 T02060019  RH  029%=      5-min Rain = 0
KPPS 252115Z 11007KT 21/02 A3023 RMK A01 T02090018  RH  029%=      5-min Rain = 0
KPPS 252120Z 11005KT 21/01 A3023 RMK A01 T02070013  RH  028%=      5-min Rain = 0
KPPS 252125Z 09004KT 21/01 A3023 RMK A01 T02080013  RH  028%=      5-min Rain = 0
KPPS 252130Z 03002KT 21/01 A3023 RMK A01 T02090011  RH  027%=      5-min Rain = 0
KPPS 252135Z 15004KT 21/01 A3023 RMK A01 T02110008  RH  026%=      5-min Rain = 0
KPPS 252140Z 16003KT 21/01 A3023 RMK A01 T02080006  RH  026%=      5-min Rain = 0
KPPS 252145Z 09003G9KT 21/01 A3023 RMK A01 T02130012  RH  027%=      5-min Rain = 0
KPPS 252150Z 12007KT 22/01 A3022 RMK A01 T02150012  RH  026%=      5-min Rain = 0
KPPS 252155Z 10004KT 21/01 A3022 RMK A01 T02140012  RH  027%=      5-min Rain = 0
KPPS 252200Z 15007KT 21/01 A3022 RMK A01 T02140009  RH  026%=      5-min Rain = 0
KPPS 252205Z 18006G11KT 21/01 A3022 RMK A01 T02140010  RH  026%=      5-min Rain = 0
KPPS 252210Z 18005G10KT 21/01 A3022 RMK A01 T02110007  RH  026%=      5-min Rain = 0
KPPS 252215Z 19006KT 21/01 A3022 RMK A01 T02140012  RH  027%=      5-min Rain = 0
KPPS 252220Z 19006G12KT 21/01 A3022 RMK A01 T02130009  RH  026%=      5-min Rain = 0
KPPS 252225Z 19004KT 21/01 A3022 RMK A01 T02120006  RH  026%=      5-min Rain = 0
KPPS 252230Z 22003KT 21/01 A3022 RMK A01 T02130006  RH  026%=      5-min Rain = 0
KPPS 252235Z 18001KT 21/00 A3022 RMK A01 T02120002  RH  025%=      5-min Rain = 0
KPPS 252240Z 31001KT 22/01 A3022 RMK A01 T02160005  RH  025%=      5-min Rain = 0
KPPS 252245Z 31001KT 22/01 A3022 RMK A01 T02150005  RH  025%=      5-min Rain = 0
KPPS 252250Z 12006KT 22/01 A3022 RMK A01 T02160007  RH  025%=      5-min Rain = 0
KPPS 252255Z 12003KT 21/00 A3022 RMK A01 T02120003  RH  025%=      5-min Rain = 0
KPPS 252300Z 12005KT 21/01 A3022 RMK A01 T02120005  RH  025%=      5-min Rain = 0
KPPS 252305Z 14005KT 21/00 A3022 RMK A01 T02140002  RH  025%=      5-min Rain = 0
KPPS 252310Z 18003KT 22/00 A3022 RMK A01 T021500-0  RH  024%=      5-min Rain = 0
KPPS 252315Z 14003KT 22/00 A3022 RMK A01 T02170001  RH  024%=      5-min Rain = 0
KPPS 252320Z 09005KT 21/00 A3022 RMK A01 T02140003  RH  025%=      5-min Rain = 0
KPPS 252325Z 14004KT 21/00 A3022 RMK A01 T02130002  RH  025%=      5-min Rain = 0
KPPS 252330Z 13007KT 21/00 A3022 RMK A01 T02140004  RH  025%=      5-min Rain = 0
KPPS 252335Z 14006KT 21/00 A3022 RMK A01 T02120002  RH  025%=      5-min Rain = 0
KPPS 252340Z 19001KT 21/00 A3022 RMK A01 T02140003  RH  025%=      5-min Rain = 0
KPPS 252345Z 13003G8KT 22/00 A3022 RMK A01 T02160001  RH  024%=      5-min Rain = 0
KPPS 252350Z 11007KT 21/01 A3022 RMK A01 T02120008  RH  026%=      5-min Rain = 0
KPPS 252355Z 12007KT 21/01 A3022 RMK A01 T02110008  RH  026%=      5-min Rain = 0
KPPS 260000Z 13009KT 21/01 A3022 RMK A01 T02100009  RH  027%=      5-min Rain = 0
KPPS 260005Z 13009KT 21/01 A3022 RMK A01 T02070010  RH  027%=      5-min Rain = 0
KPPS 260010Z 13009KT 21/01 A3022 RMK A01 T02060011  RH  028%=      5-min Rain = 0
KPPS 260015Z 14007KT 21/01 A3022 RMK A01 T02060013  RH  028%=      5-min Rain = 0
KPPS 260020Z 14009KT 20/01 A3022 RMK A01 T02040013  RH  028%=      5-min Rain = 0
KPPS 260025Z 13011KT 20/02 A3021 RMK A01 T02010017  RH  030%=      5-min Rain = 0
KPPS 260030Z 13010KT 20/02 A3021 RMK A01 T01980021  RH  031%=      5-min Rain = 0
KPPS 260035Z 12010KT 20/02 A3021 RMK A01 T01960020  RH  032%=      5-min Rain = 0
KPPS 260040Z 13010KT 19/02 A3021 RMK A01 T01940023  RH  032%=      5-min Rain = 0
KPPS 260045Z 12009KT 19/02 A3021 RMK A01 T01910024  RH  033%=      5-min Rain = 0
KPPS 260050Z 12010KT 19/03 A3021 RMK A01 T01890025  RH  034%=      5-min Rain = 0
KPPS 260055Z 12009KT 18/03 A3021 RMK A01 T01840027  RH  036%=      5-min Rain = 0
KPPS 260100Z 13008KT 18/03 A3021 RMK A01 T01810027  RH  036%=      5-min Rain = 0
KPPS 260105Z 13008KT 18/03 A3022 RMK A01 T01750027  RH  038%=      5-min Rain = 0
KPPS 260110Z 12009KT 17/03 A3022 RMK A01 T01710027  RH  039%=      5-min Rain = 0
KPPS 260115Z 12009KT 17/03 A3022 RMK A01 T01690027  RH  039%=      5-min Rain = 0
KPPS 260120Z 12009KT 16/03 A3022 RMK A01 T01640029  RH  041%=      5-min Rain = 0
KPPS 260125Z 12008KT 16/03 A3022 RMK A01 T01610031  RH  042%=      5-min Rain = 0
KPPS 260130Z 12009KT 16/03 A3022 RMK A01 T01580031  RH  043%=      5-min Rain = 0
KPPS 260135Z 12009KT 16/03 A3022 RMK A01 T01580032  RH  044%=      5-min Rain = 0
KPPS 260140Z 12009KT 16/03 A3022 RMK A01 T01560033  RH  044%=      5-min Rain = 0
KPPS 260145Z 12009KT 15/03 A3022 RMK A01 T01530033  RH  045%=      5-min Rain = 0
KPPS 260150Z 12009KT 15/03 A3022 RMK A01 T01500034  RH  047%=      5-min Rain = 0
KPPS 260155Z 12010KT 15/04 A3023 RMK A01 T01490035  RH  047%=      5-min Rain = 0
KPPS 260200Z 12010KT 15/04 A3023 RMK A01 T01490035  RH  047%=      5-min Rain = 0
KPPS 260205Z 12010KT 15/04 A3023 RMK A01 T01480036  RH  048%=      5-min Rain = 0
KPPS 260210Z 12010KT 15/04 A3023 RMK A01 T01450036  RH  049%=      5-min Rain = 0
KPPS 260215Z 12009KT 14/04 A3023 RMK A01 T01430037  RH  050%=      5-min Rain = 0
KPPS 260220Z 12008KT 14/04 A3024 RMK A01 T01410037  RH  051%=      5-min Rain = 0
KPPS 260225Z 12008KT 14/04 A3024 RMK A01 T01380037  RH  052%=      5-min Rain = 0
KPPS 260230Z 12008KT 13/04 A3024 RMK A01 T01340037  RH  053%=      5-min Rain = 0
KPPS 260235Z 12009KT 13/04 A3024 RMK A01 T01330038  RH  054%=      5-min Rain = 0
KPPS 260240Z 12010KT 13/04 A3024 RMK A01 T01340039  RH  053%=      5-min Rain = 0
KPPS 260245Z 12010KT 14/04 A3025 RMK A01 T01350039  RH  053%=      5-min Rain = 0
KPPS 260250Z 12010KT 14/04 A3025 RMK A01 T01360039  RH  053%=      5-min Rain = 0
KPPS 260255Z 12010KT 13/04 A3025 RMK A01 T01340040  RH  054%=      5-min Rain = 0
KPPS 260300Z 12009KT 13/04 A3025 RMK A01 T01330040  RH  054%=      5-min Rain = 0
KPPS 260305Z 12010KT 13/04 A3025 RMK A01 T01310040  RH  055%=      5-min Rain = 0
KPPS 260310Z 12010KT 13/04 A3026 RMK A01 T01310040  RH  055%=      5-min Rain = 0
KPPS 260315Z 12009KT 13/04 A3026 RMK A01 T01300040  RH  056%=      5-min Rain = 0
KPPS 260320Z 12009KT 13/04 A3026 RMK A01 T01270040  RH  056%=      5-min Rain = 0
KPPS 260325Z 12009KT 13/04 A3026 RMK A01 T01250040  RH  057%=      5-min Rain = 0
KPPS 260330Z 12008KT 12/04 A3026 RMK A01 T01230040  RH  058%=      5-min Rain = 0
KPPS 260335Z 12009KT 12/04 A3026 RMK A01 T01220040  RH  058%=      5-min Rain = 0
KPPS 260340Z 12009KT 12/04 A3026 RMK A01 T01210040  RH  059%=      5-min Rain = 0
KPPS 260345Z 12009KT 12/04 A3027 RMK A01 T01200041  RH  059%=      5-min Rain = 0
KPPS 260350Z 12009KT 12/04 A3027 RMK A01 T01190041  RH  060%=      5-min Rain = 0
KPPS 260355Z 12009KT 12/04 A3027 RMK A01 T01170041  RH  061%=      5-min Rain = 0
KPPS 260400Z 13009KT 12/04 A3027 RMK A01 T01150041  RH  062%=      5-min Rain = 0
KPPS 260405Z 12009KT 11/04 A3027 RMK A01 T01130041  RH  062%=      5-min Rain = 0
KPPS 260410Z 12009KT 11/04 A3027 RMK A01 T01110042  RH  064%=      5-min Rain = 0
KPPS 260415Z 12008KT 11/04 A3028 RMK A01 T01090041  RH  064%=      5-min Rain = 0
KPPS 260420Z 12008KT 11/04 A3028 RMK A01 T01070042  RH  065%=      5-min Rain = 0
KPPS 260425Z 12008KT 11/04 A3028 RMK A01 T01060041  RH  065%=      5-min Rain = 0
KPPS 260430Z 12008KT 11/04 A3028 RMK A01 T01050041  RH  066%=      5-min Rain = 0
KPPS 260435Z 12008KT 11/04 A3028 RMK A01 T01050041  RH  066%=      5-min Rain = 0
KPPS 260440Z 11008KT 10/04 A3028 RMK A01 T01040042  RH  066%=      5-min Rain = 0
KPPS 260445Z 11008KT 10/04 A3028 RMK A01 T01030042  RH  067%=      5-min Rain = 0
KPPS 260450Z 12008KT 10/04 A3028 RMK A01 T01010042  RH  068%=      5-min Rain = 0
KPPS 260455Z 12009KT 10/04 A3028 RMK A01 T00990042  RH  069%=      5-min Rain = 0

Page generated in 0.0089 seconds.